EGLLEGBB

Guest
Details From EGLL - London Heathrow
To EGBB - Birmingham
Flight Number -
Tags decoded
Created
Modified
Stats Distance 76 nm / 141 km
Max Altitude 0 ft / 0 m
Waypoints 2
Social Downloads 0
Likes 0
Share VATSIM

Download

Looking for another format? Having issues loading an existing format? Contact us
Advertisement - Login to hide

Notes

Requested: EGLL TANGO EGBB

Route

EGLL EGBB

ID Type Via Altitude Latitude Longitude Leg Dist Tot Dist Heading (true) Name
O EGLL APT - 0 ft / 0 m 51.47122˚ -0.46098˚ - 0 nm - London Heathrow
O EGBB APT - 0 ft / 0 m 52.45597˚ -1.75038˚ 75 nm 75 nm 322° / 321° Birmingham

Altitude Profile

Advertisement - Login to hide

EGLL

Details ICAO EGLL (LHR)
Name London Heathrow
Region United Kingdom
Timezone Europe/London (UTC+1.0)
Stats Elevation 83 ft / 25 m (AMSL)
Location 51.471218° -0.460978°
Runways 2
Magnetic Variation 0.496° W

METAR

EGLL 202320Z AUTO 07004KT 7000 NCD 12/07 Q1020 NOSIG

Decode

TAF

TAF AMD EGLL 202247Z 2022/2124 10006KT 9000 FEW045 TEMPO 2101/2108 3500 BR BKN004 PROB30 TEMPO 2102/2107 0400 FG BKN001 BECMG 2107/2110 9999 PROB30 TEMPO 2112/2118 4000 +TSRA

Decode

Departure Runways

ID Width Length Bearing (true) Bearing (mag) Surface Threshold Offset Overrun Length
09L 164 ft / 50 m 12,811 ft / 3,905 m 89.64° 90.14° Asphalt 1,004 ft / 306 m 0 ft / 0 m
09R 164 ft / 50 m 12,019 ft / 3,663 m 89.67° 90.17° Asphalt 1,007 ft / 307 m 0 ft / 0 m
27L 164 ft / 50 m 12,019 ft / 3,663 m 269.71° 270.21° Asphalt 0 ft / 0 m 69 ft / 21 m
27R 164 ft / 50 m 12,811 ft / 3,905 m 269.69° 270.19° Asphalt 0 ft / 0 m 69 ft / 21 m

EGBB

Details ICAO EGBB (BHX)
Name Birmingham
Region United Kingdom
Timezone Europe/London (UTC+1.0)
Stats Elevation 327 ft / 100 m (AMSL)
Location 52.455966° -1.750378°
Runways 1
Magnetic Variation 1.074° W

METAR

EGBB 202320Z 16005KT CAVOK 11/09 Q1019

Decode

TAF

TAF EGBB 201656Z 2018/2118 15005KT 9999 FEW045 PROB30 2103/2107 6000 PROB30 TEMPO 2114/2117 6000 +SHRA SHGS

Decode

Destination Runways

ID Width Length Bearing (true) Bearing (mag) Surface Threshold Offset Overrun Length
15 151 ft / 46 m 8,477 ft / 2,584 m 145.87° 146.94° Asphalt 925 ft / 282 m 0 ft / 0 m
33 151 ft / 46 m 8,477 ft / 2,584 m 325.89° 326.96° Asphalt 958 ft / 292 m 0 ft / 0 m

Approach Navaids

Runway Type Ident Frequency Range Bearing (true) Bearing (mag) Slope Elevation
15 Localiser IBIR 110.10 MHz 18 nm / 33 km 145.89° 146.97° - 325 ft / 99 m (AMSL)
15 Glidescope IBIR 110.10 MHz 10 nm / 19 km 145.88° 146.96° 3.00° 325 ft / 99 m (AMSL)
15 DME IBIR 110.10 MHz 18 nm / 33 km - - - 349 ft / 106 m (AMSL)
33 Localiser IBM 110.10 MHz 18 nm / 33 km 325.87° 326.94° - 325 ft / 99 m (AMSL)
33 Glidescope IBM 110.10 MHz 10 nm / 19 km 325.88° 326.96° 3.00° 325 ft / 99 m (AMSL)
33 DME IBM 110.10 MHz 18 nm / 33 km - - - 327 ft / 100 m (AMSL)

Popular Alternatives